Time;durP1;ratioP1;P1;durP2;ratioP2;P2;SDS_P1;SDS_P2;PMS_P1;PMS_P2;Temp;Humidity;BMP_temperature;BMP_pressure;BME280_temperature;BME280_humidity;BME280_pressure;Samples;Min_cycle;Max_cycle;Signal;HPM_P1;HPM_P2
2024/04/15 00:01:01;;;;;;;1.70;0.90;;;22.70;63.40;;;;;;5385637;26;86883;-70
2024/04/15 00:03:27;;;;;;;1.52;1.00;;;22.70;63.10;;;;;;5364941;26;85673;-70
2024/04/15 00:05:53;;;;;;;2.85;1.08;;;22.70;63.20;;;;;;5346994;26;86250;-68
2024/04/15 00:08:19;;;;;;;1.83;1.05;;;22.60;63.10;;;;;;5399818;26;86363;-73
2024/04/15 00:10:45;;;;;;;1.02;0.90;;;22.60;63.30;;;;;;5366581;26;86802;-76
2024/04/15 00:13:11;;;;;;;0.93;0.80;;;22.70;63.40;;;;;;5361952;26;86906;-73
2024/04/15 00:15:37;;;;;;;1.55;0.93;;;22.60;63.20;;;;;;5329178;26;87608;-74
2024/04/15 00:18:03;;;;;;;2.30;1.33;;;22.60;63.10;;;;;;5332752;26;85838;-71
2024/04/15 00:20:29;;;;;;;1.50;1.15;;;22.60;63.10;;;;;;5322964;26;86300;-71
2024/04/15 00:22:56;;;;;;;1.33;1.10;;;22.60;63.00;;;;;;5366799;26;86302;-73
2024/04/15 00:25:23;;;;;;;1.58;1.27;;;22.60;63.10;;;;;;5333528;26;88369;-73
2024/04/15 00:27:49;;;;;;;1.50;0.80;;;22.60;63.10;;;;;;5340457;26;90183;-72
2024/04/15 00:30:15;;;;;;;1.38;0.93;;;22.60;62.70;;;;;;5401725;26;85590;-73
2024/04/15 00:32:41;;;;;;;1.35;1.10;;;22.60;63.10;;;;;;5367774;26;86896;-72
2024/04/15 00:35:07;;;;;;;2.22;1.00;;;22.60;62.90;;;;;;5397498;26;85879;-71
2024/04/15 00:37:33;;;;;;;1.42;1.02;;;22.60;62.90;;;;;;5366737;26;87807;-73
2024/04/15 00:39:58;;;;;;;1.65;1.00;;;22.60;63.00;;;;;;5399960;26;86313;-68
2024/04/15 00:42:25;;;;;;;4.57;1.20;;;22.60;63.00;;;;;;5400939;26;86418;-73
2024/04/15 00:44:51;;;;;;;2.70;1.13;;;22.60;62.80;;;;;;5369284;26;86686;-72
2024/04/15 00:47:18;;;;;;;0.77;0.77;;;22.60;62.90;;;;;;5368633;26;86445;-71
2024/04/15 00:49:45;;;;;;;0.98;0.85;;;22.60;62.60;;;;;;5360366;26;87498;-75
2024/04/15 00:52:11;;;;;;;2.65;1.77;;;22.60;62.70;;;;;;5399580;26;86234;-70
2024/04/15 00:54:43;;;;;;;1.77;1.05;;;22.60;62.70;;;;;;5364002;26;87978;-74
2024/04/15 00:57:09;;;;;;;1.23;0.98;;;22.60;63.00;;;;;;5387859;26;87076;-72
2024/04/15 00:59:38;;;;;;;1.10;0.90;;;22.60;62.90;;;;;;5333687;26;85919;-71
2024/04/15 01:02:06;;;;;;;2.03;1.08;;;22.60;63.00;;;;;;5344811;26;87555;-74
2024/04/15 01:04:33;;;;;;;1.60;1.23;;;22.60;62.80;;;;;;5395219;26;86635;-72
2024/04/15 01:06:59;;;;;;;5.15;0.93;;;22.50;62.70;;;;;;5394358;26;87314;-71
2024/04/15 01:09:25;;;;;;;0.80;0.80;;;22.50;62.70;;;;;;5367815;26;86022;-71
2024/04/15 01:11:52;;;;;;;1.15;1.00;;;22.50;62.70;;;;;;5398405;26;86486;-75
2024/04/15 01:14:19;;;;;;;1.45;1.20;;;22.50;63.00;;;;;;5365819;26;88086;-73
2024/04/15 01:16:45;;;;;;;2.45;1.27;;;22.50;62.80;;;;;;5396908;26;86669;-74
2024/04/15 01:19:11;;;;;;;1.90;1.10;;;22.60;62.70;;;;;;5366124;26;85642;-69
2024/04/15 01:21:37;;;;;;;1.77;1.25;;;22.50;62.80;;;;;;5398446;26;86810;-74
2024/04/15 01:24:04;;;;;;;1.00;0.90;;;22.50;62.70;;;;;;5367991;26;86676;-73
2024/04/15 01:26:31;;;;;;;1.30;1.20;;;22.50;62.90;;;;;;5367736;26;87094;-74
2024/04/15 01:28:57;;;;;;;1.58;0.98;;;22.50;62.80;;;;;;5368750;26;85860;-73
2024/04/15 01:31:24;;;;;;;1.30;0.98;;;22.50;62.70;;;;;;5399932;26;85725;-71
2024/04/15 01:33:50;;;;;;;1.55;0.90;;;22.50;63.00;;;;;;5396746;26;86636;-72
2024/04/15 01:36:15;;;;;;;0.82;0.80;;;22.50;62.70;;;;;;5399746;26;87146;-72
2024/04/15 01:38:41;;;;;;;1.67;1.30;;;22.50;62.70;;;;;;5367457;26;87449;-74
2024/04/15 01:41:07;;;;;;;1.67;0.90;;;22.50;62.60;;;;;;5391848;26;86337;-77
2024/04/15 01:43:33;;;;;;;1.55;1.45;;;22.40;62.50;;;;;;5363472;26;85981;-73
2024/04/15 01:45:59;;;;;;;1.75;1.00;;;22.40;62.60;;;;;;5331131;26;88072;-71
2024/04/15 01:48:25;;;;;;;1.42;1.10;;;22.40;62.90;;;;;;5364269;26;85969;-71
2024/04/15 01:50:51;;;;;;;1.35;1.05;;;22.40;62.90;;;;;;5361175;26;86541;-74
2024/04/15 01:53:17;;;;;;;1.05;0.80;;;22.40;62.80;;;;;;5335083;26;87151;-71
2024/04/15 01:55:43;;;;;;;0.88;0.75;;;22.40;62.70;;;;;;5368869;26;86643;-70
2024/04/15 01:58:09;;;;;;;2.15;1.35;;;22.40;62.70;;;;;;5398563;25;85732;-72
2024/04/15 02:00:35;;;;;;;1.75;0.90;;;22.40;62.60;;;;;;5400466;26;86254;-69
2024/04/15 02:03:01;;;;;;;0.80;0.80;;;22.40;62.70;;;;;;5399190;26;87911;-71
2024/04/15 02:05:27;;;;;;;0.98;0.80;;;22.40;62.70;;;;;;5396158;26;87574;-68
2024/04/15 02:07:56;;;;;;;1.67;0.73;;;22.40;62.60;;;;;;5367266;26;85859;-70
2024/04/15 02:10:22;;;;;;;1.50;0.90;;;22.40;62.50;;;;;;5366893;26;86952;-69
2024/04/15 02:12:48;;;;;;;1.33;1.10;;;22.40;62.60;;;;;;5365585;26;87243;-69
2024/04/15 02:15:15;;;;;;;1.38;1.00;;;22.40;62.50;;;;;;5335840;26;86002;-71
2024/04/15 02:17:41;;;;;;;0.93;0.82;;;22.40;62.40;;;;;;5397057;26;85870;-74
2024/04/15 02:20:07;;;;;;;1.05;0.93;;;22.40;62.40;;;;;;5398996;26;85707;-74
2024/04/15 02:22:33;;;;;;;2.60;1.27;;;22.40;62.40;;;;;;5398421;26;86958;-74
2024/04/15 02:24:59;;;;;;;1.38;1.05;;;22.40;62.40;;;;;;5337763;26;86763;-71
2024/04/15 02:27:25;;;;;;;1.23;1.13;;;22.40;62.30;;;;;;5367325;26;87124;-72
2024/04/15 02:29:51;;;;;;;1.67;0.95;;;22.40;62.30;;;;;;5355700;26;86137;-75
2024/04/15 02:32:19;;;;;;;1.20;0.80;;;22.40;62.20;;;;;;5363222;26;86853;-73
2024/04/15 02:34:45;;;;;;;1.25;0.82;;;22.40;62.30;;;;;;5398693;26;87363;-73
2024/04/15 02:37:11;;;;;;;0.85;0.70;;;22.30;62.10;;;;;;5383523;26;85990;-72
2024/04/15 02:39:38;;;;;;;1.75;1.05;;;22.40;62.20;;;;;;5365081;26;85852;-74
2024/04/15 02:42:05;;;;;;;1.60;1.13;;;22.30;62.40;;;;;;5399467;26;86686;-70
2024/04/15 02:44:30;;;;;;;1.73;1.20;;;22.30;62.40;;;;;;5399458;26;87261;-72
2024/04/15 02:46:56;;;;;;;1.27;0.90;;;22.30;62.40;;;;;;5398279;26;85867;-71
2024/04/15 02:49:22;;;;;;;0.98;0.90;;;22.30;62.20;;;;;;5388654;26;86385;-76
2024/04/15 02:51:48;;;;;;;1.80;1.27;;;22.30;62.20;;;;;;5332342;26;89036;-73
2024/04/15 02:54:14;;;;;;;2.10;1.17;;;22.30;62.40;;;;;;5371677;25;87450;-70
2024/04/15 02:56:43;;;;;;;0.80;0.63;;;22.30;62.10;;;;;;5396176;26;85804;-74
2024/04/15 02:59:08;;;;;;;2.85;1.02;;;22.30;62.30;;;;;;5398692;26;87313;-68
2024/04/15 03:01:34;;;;;;;1.70;1.00;;;22.30;62.20;;;;;;5400132;26;86704;-71
2024/04/15 03:04:00;;;;;;;1.00;0.82;;;22.30;62.10;;;;;;5400377;26;85993;-75
2024/04/15 03:06:26;;;;;;;0.93;0.90;;;22.30;62.10;;;;;;5369490;26;85853;-74
2024/04/15 03:08:52;;;;;;;1.38;1.00;;;22.30;62.10;;;;;;5400976;26;85607;-75
2024/04/15 03:11:18;;;;;;;1.08;0.93;;;22.20;62.30;;;;;;5336169;26;87193;-74
2024/04/15 03:13:47;;;;;;;1.63;0.95;;;22.20;62.40;;;;;;5369636;26;88180;-73
2024/04/15 03:16:13;;;;;;;1.25;0.73;;;22.20;62.10;;;;;;5333933;26;86945;-75
2024/04/15 03:18:39;;;;;;;1.02;0.93;;;22.20;62.40;;;;;;5399990;26;86760;-72
2024/04/15 03:21:07;;;;;;;1.77;0.82;;;22.20;62.10;;;;;;5402916;26;86327;-72
2024/04/15 03:23:33;;;;;;;1.00;0.80;;;22.20;62.10;;;;;;5368386;26;86146;-72
2024/04/15 03:25:59;;;;;;;2.35;1.00;;;22.20;62.10;;;;;;5367512;26;86026;-70
2024/04/15 03:28:25;;;;;;;1.10;0.90;;;22.20;62.10;;;;;;5399165;26;85930;-75
2024/04/15 03:30:50;;;;;;;1.33;0.93;;;22.20;62.10;;;;;;5400063;26;86663;-74
2024/04/15 03:33:16;;;;;;;1.42;0.90;;;22.20;62.40;;;;;;5401391;26;86504;-69
2024/04/15 03:35:42;;;;;;;1.70;0.80;;;22.20;62.40;;;;;;5367938;26;86601;-73
2024/04/15 03:38:08;;;;;;;1.35;0.98;;;22.20;63.00;;;;;;5400352;26;86366;-71
2024/04/15 03:40:34;;;;;;;1.92;1.05;;;22.20;62.00;;;;;;5399657;26;87617;-71
2024/04/15 03:43:02;;;;;;;0.93;0.80;;;22.20;62.00;;;;;;5367351;26;88072;-73
2024/04/15 03:45:28;;;;;;;2.28;1.00;;;22.20;61.90;;;;;;5363217;26;86158;-69
2024/04/15 03:47:54;;;;;;;1.20;0.88;;;22.20;61.90;;;;;;5325201;26;86263;-70
2024/04/15 03:50:23;;;;;;;1.42;1.00;;;22.20;62.40;;;;;;5337878;25;87283;-72
2024/04/15 03:52:49;;;;;;;1.23;0.95;;;22.10;62.20;;;;;;5366147;26;87001;-73
2024/04/15 03:55:15;;;;;;;1.60;1.25;;;22.10;62.10;;;;;;5397174;26;86060;-71
2024/04/15 03:57:41;;;;;;;1.40;0.90;;;22.10;62.20;;;;;;5368365;26;85874;-74
2024/04/15 04:00:08;;;;;;;1.10;0.88;;;22.10;61.90;;;;;;5399509;26;86113;-71
2024/04/15 04:02:34;;;;;;;1.05;0.82;;;22.10;62.00;;;;;;5396153;26;86511;-71
2024/04/15 04:04:59;;;;;;;1.75;1.30;;;22.10;62.00;;;;;;5398235;26;87119;-73
2024/04/15 04:07:25;;;;;;;0.98;0.70;;;22.10;62.00;;;;;;5400596;26;85960;-75
2024/04/15 04:09:52;;;;;;;0.75;0.75;;;22.20;62.00;;;;;;5367646;26;87203;-75
2024/04/15 04:12:17;;;;;;;1.48;0.80;;;22.10;62.00;;;;;;5399590;26;86570;-70
2024/04/15 04:14:43;;;;;;;0.90;0.80;;;22.10;62.00;;;;;;5368668;26;86322;-72
2024/04/15 04:17:10;;;;;;;2.92;0.98;;;22.10;62.10;;;;;;5339136;26;87344;-72
2024/04/15 04:19:35;;;;;;;0.82;0.82;;;22.10;61.90;;;;;;5364815;26;86178;-71
2024/04/15 04:22:01;;;;;;;1.35;0.85;;;22.10;61.90;;;;;;5366111;26;86558;-75
2024/04/15 04:24:29;;;;;;;1.10;0.73;;;22.10;62.00;;;;;;5365081;26;85967;-74
2024/04/15 04:26:55;;;;;;;0.98;0.77;;;22.10;61.90;;;;;;5363385;26;86569;-70
2024/04/15 04:29:21;;;;;;;1.23;0.90;;;22.10;61.90;;;;;;5331949;26;88220;-72
2024/04/15 04:31:47;;;;;;;0.90;0.80;;;22.10;61.80;;;;;;5363491;26;86690;-73
2024/04/15 04:34:12;;;;;;;0.90;0.82;;;22.10;61.90;;;;;;5333517;26;85913;-71
2024/04/15 04:36:39;;;;;;;0.93;0.82;;;22.10;62.00;;;;;;5364414;26;85735;-70
2024/04/15 04:39:04;;;;;;;0.70;0.70;;;22.10;61.80;;;;;;5363653;26;86596;-70
2024/04/15 04:41:31;;;;;;;0.82;0.70;;;22.10;61.90;;;;;;5362783;26;86509;-72
2024/04/15 04:43:57;;;;;;;1.00;0.90;;;22.10;61.90;;;;;;5352750;26;86511;-73
2024/04/15 04:46:23;;;;;;;1.00;0.60;;;22.10;61.70;;;;;;5396054;26;85644;-70
2024/04/15 04:48:50;;;;;;;2.72;0.95;;;22.10;61.90;;;;;;5366331;26;87488;-74
2024/04/15 04:51:16;;;;;;;1.30;0.93;;;22.10;61.70;;;;;;5367642;26;87990;-72
2024/04/15 04:53:42;;;;;;;1.02;0.88;;;22.10;61.70;;;;;;5334218;26;86713;-75
2024/04/15 04:56:13;;;;;;;1.35;0.80;;;22.10;61.50;;;;;;5400233;26;86168;-76
2024/04/15 04:58:40;;;;;;;0.70;0.70;;;22.10;61.60;;;;;;5368296;26;86937;-72
2024/04/15 05:01:15;;;;;;;0.60;0.60;;;22.10;61.60;;;;;;5368978;26;87768;-74
2024/04/15 05:03:47;;;;;;;1.77;0.90;;;22.00;61.80;;;;;;5367147;26;85932;-70
2024/04/15 05:06:15;;;;;;;0.82;0.60;;;22.10;61.50;;;;;;5339220;26;86071;-72
2024/04/15 05:08:43;;;;;;;2.80;1.10;;;22.10;61.60;;;;;;5399342;26;86689;-74
2024/04/15 05:11:09;;;;;;;0.98;0.80;;;22.10;61.50;;;;;;5400617;26;86423;-69
2024/04/15 05:13:35;;;;;;;1.63;0.90;;;22.10;61.60;;;;;;5368464;26;85850;-72
2024/04/15 05:16:05;;;;;;;1.00;0.93;;;22.10;61.50;;;;;;5396222;26;85863;-72
2024/04/15 05:18:32;;;;;;;0.90;0.80;;;22.10;61.60;;;;;;5397265;26;87093;-72
2024/04/15 05:21:02;;;;;;;0.70;0.70;;;22.10;61.70;;;;;;5400446;26;87547;-72
2024/04/15 05:23:28;;;;;;;0.88;0.70;;;22.10;61.80;;;;;;5368582;26;85933;-72
2024/04/15 05:25:55;;;;;;;0.70;0.60;;;22.00;61.70;;;;;;5365305;26;86405;-72
2024/04/15 05:28:21;;;;;;;0.70;0.70;;;22.00;61.80;;;;;;5366048;26;86815;-69
2024/04/15 05:30:47;;;;;;;1.08;0.70;;;22.00;61.90;;;;;;5397897;26;86557;-73
2024/04/15 05:33:13;;;;;;;0.73;0.60;;;22.00;61.90;;;;;;5399789;26;85721;-72
2024/04/15 05:35:41;;;;;;;1.05;0.60;;;22.00;61.90;;;;;;5398461;26;87244;-69
2024/04/15 05:38:07;;;;;;;1.23;0.77;;;22.00;62.00;;;;;;5391239;26;87010;-73
2024/04/15 05:40:33;;;;;;;1.27;0.88;;;22.00;61.80;;;;;;5333114;26;87381;-75
2024/04/15 05:42:59;;;;;;;1.15;0.85;;;22.00;61.80;;;;;;5348335;25;86826;-74
2024/04/15 05:45:25;;;;;;;0.80;0.80;;;22.00;61.90;;;;;;5401254;26;85708;-75
2024/04/15 05:47:51;;;;;;;0.80;0.65;;;21.90;61.90;;;;;;5367058;26;86583;-72
2024/04/15 05:50:17;;;;;;;2.83;0.80;;;22.00;61.90;;;;;;5398948;26;85748;-67
2024/04/15 05:52:43;;;;;;;0.88;0.65;;;22.00;61.60;;;;;;5367645;26;86215;-75
2024/04/15 05:55:09;;;;;;;0.80;0.80;;;22.00;61.90;;;;;;5391094;26;86159;-73
2024/04/15 05:57:36;;;;;;;1.85;0.85;;;22.00;61.80;;;;;;5367258;26;86047;-74
2024/04/15 06:00:04;;;;;;;1.10;0.80;;;22.00;62.00;;;;;;5335631;26;87812;-69
2024/04/15 06:02:30;;;;;;;1.03;0.70;;;22.00;61.80;;;;;;5334806;26;86027;-75
2024/04/15 06:04:56;;;;;;;0.80;0.70;;;22.00;61.80;;;;;;5334795;26;87331;-74
2024/04/15 06:07:22;;;;;;;1.42;0.80;;;21.90;61.80;;;;;;5364993;26;87644;-71
2024/04/15 06:09:48;;;;;;;0.73;0.70;;;21.90;61.60;;;;;;5365753;26;88000;-72
2024/04/15 06:12:14;;;;;;;1.15;0.60;;;22.00;61.80;;;;;;5366033;26;86311;-68
2024/04/15 06:14:40;;;;;;;8.30;2.00;;;21.90;61.40;;;;;;5333097;26;85898;-74
2024/04/15 06:17:06;;;;;;;19.42;2.72;;;22.00;61.30;;;;;;5364601;26;86282;-74
2024/04/15 06:19:31;;;;;;;25.73;5.07;;;22.10;61.90;;;;;;5365405;26;86353;-68
2024/04/15 06:22:00;;;;;;;15.85;3.78;;;22.10;60.90;;;;;;5384176;26;85930;-72
2024/04/15 06:24:26;;;;;;;18.00;3.33;;;22.20;61.90;;;;;;5401024;26;85671;-70
2024/04/15 06:26:52;;;;;;;12.40;3.20;;;22.20;62.00;;;;;;5399522;26;87106;-73
2024/04/15 06:29:18;;;;;;;10.43;2.70;;;22.40;61.60;;;;;;5399699;26;85954;-76
2024/04/15 06:31:44;;;;;;;7.68;2.53;;;22.60;60.90;;;;;;5398131;26;86631;-73
2024/04/15 06:34:09;;;;;;;8.63;2.78;;;22.80;60.30;;;;;;5397683;26;86043;-72
2024/04/15 06:36:35;;;;;;;10.75;2.63;;;23.00;59.80;;;;;;5367757;26;86154;-67
2024/04/15 06:39:02;;;;;;;11.45;2.33;;;23.10;59.70;;;;;;5371841;25;87947;-73
2024/04/15 06:41:28;;;;;;;8.63;2.20;;;23.10;60.40;;;;;;5400422;26;86781;-70
2024/04/15 06:43:53;;;;;;;7.88;2.03;;;23.10;60.30;;;;;;5370383;26;86341;-73
2024/04/15 06:46:19;;;;;;;6.50;1.63;;;22.90;61.40;;;;;;5400536;26;85800;-72
2024/04/15 06:48:45;;;;;;;9.05;3.72;;;22.70;62.30;;;;;;5359954;26;86295;-75
2024/04/15 06:51:11;;;;;;;7.40;2.30;;;22.70;62.80;;;;;;5402859;26;85926;-72
2024/04/15 06:53:36;;;;;;;7.45;1.85;;;22.80;61.90;;;;;;5400919;26;85813;-71
2024/04/15 06:56:03;;;;;;;10.65;2.72;;;23.00;61.40;;;;;;5365835;26;87701;-75
2024/04/15 06:58:29;;;;;;;15.02;3.33;;;23.10;60.20;;;;;;5340772;26;88926;-77
2024/04/15 07:00:58;;;;;;;14.02;3.25;;;23.10;59.70;;;;;;5358696;26;86064;-80
2024/04/15 07:03:24;;;;;;;16.05;5.00;;;23.00;59.20;;;;;;5388607;26;85917;-76
2024/04/15 07:05:50;;;;;;;12.05;2.90;;;23.00;59.30;;;;;;5353813;26;86735;-76
2024/04/15 07:08:16;;;;;;;6.68;1.88;;;23.10;60.00;;;;;;5348695;26;87306;-78
2024/04/15 07:10:42;;;;;;;22.48;4.70;;;23.20;59.90;;;;;;5350943;26;86501;-78
2024/04/15 07:13:09;;;;;;;39.45;7.40;;;23.10;55.50;;;;;;5354058;26;87011;-76
2024/04/15 07:15:35;;;;;;;24.83;4.88;;;23.00;55.30;;;;;;5346427;26;88134;-76
2024/04/15 07:18:01;;;;;;;26.92;6.80;;;22.80;56.00;;;;;;5348225;26;88149;-77
2024/04/15 07:20:27;;;;;;;20.83;6.70;;;22.80;56.60;;;;;;5343411;26;87419;-76
2024/04/15 07:22:53;;;;;;;28.50;5.93;;;22.80;56.70;;;;;;5349622;26;86984;-82
2024/04/15 07:25:19;;;;;;;28.70;5.18;;;23.00;56.50;;;;;;5350463;26;87277;-75
2024/04/15 07:27:45;;;;;;;29.88;6.22;;;22.90;55.90;;;;;;5335303;26;86405;-76
2024/04/15 07:30:11;;;;;;;20.67;5.53;;;22.80;55.70;;;;;;5376938;26;85933;-79
2024/04/15 07:32:37;;;;;;;30.85;6.93;;;22.80;55.70;;;;;;5353765;26;86077;-77
2024/04/15 07:35:04;;;;;;;17.23;5.55;;;22.80;55.90;;;;;;5384192;25;87058;-74
2024/04/15 07:37:31;;;;;;;19.10;4.32;;;22.80;55.90;;;;;;5358821;26;86749;-76
2024/04/15 07:39:57;;;;;;;22.65;4.65;;;22.90;55.50;;;;;;5378290;26;86150;-76
2024/04/15 07:42:23;;;;;;;25.85;5.30;;;22.90;55.20;;;;;;5330510;26;88200;-74
2024/04/15 07:44:49;;;;;;;23.63;4.55;;;22.80;55.10;;;;;;5361101;26;88463;-75
2024/04/15 07:47:15;;;;;;;27.92;4.78;;;22.80;55.30;;;;;;5362696;26;86081;-75
2024/04/15 07:49:41;;;;;;;21.60;4.57;;;22.70;56.50;;;;;;5334403;26;86092;-75
2024/04/15 07:52:08;;;;;;;18.45;4.80;;;22.70;57.00;;;;;;5367827;26;87257;-75
2024/04/15 07:54:34;;;;;;;18.35;4.18;;;22.90;56.70;;;;;;5334889;26;88354;-72
2024/04/15 07:57:00;;;;;;;15.05;4.10;;;23.00;56.20;;;;;;5333884;26;86582;-74
2024/04/15 07:59:25;;;;;;;25.58;5.10;;;23.00;55.90;;;;;;5365676;26;85698;-72
2024/04/15 08:01:52;;;;;;;18.70;4.30;;;22.90;55.80;;;;;;5366363;26;85914;-74
2024/04/15 08:04:17;;;;;;;21.10;3.90;;;22.80;56.00;;;;;;5335826;26;87691;-72
2024/04/15 08:06:44;;;;;;;16.63;4.70;;;22.80;56.70;;;;;;5335003;26;86986;-75
2024/04/15 08:09:10;;;;;;;16.55;4.35;;;23.00;56.60;;;;;;5366233;26;87127;-77
2024/04/15 08:11:35;;;;;;;15.63;4.00;;;23.20;56.50;;;;;;5366003;26;85958;-73
2024/04/15 08:14:02;;;;;;;13.05;4.13;;;23.10;56.60;;;;;;5364998;26;86696;-73
2024/04/15 08:16:28;;;;;;;17.27;4.88;;;23.00;56.60;;;;;;5367234;26;86494;-73
2024/04/15 08:18:54;;;;;;;19.08;5.18;;;22.90;56.80;;;;;;5368155;26;86157;-73
2024/04/15 08:21:21;;;;;;;18.27;4.03;;;22.90;57.40;;;;;;5335617;26;86962;-71
2024/04/15 08:23:48;;;;;;;16.38;3.70;;;23.10;57.60;;;;;;5336224;26;87317;-78
2024/04/15 08:26:14;;;;;;;15.45;3.85;;;23.10;56.10;;;;;;5334639;26;87087;-77
2024/04/15 08:28:40;;;;;;;13.32;3.45;;;23.10;53.70;;;;;;5388673;26;85865;-74
2024/04/15 08:31:05;;;;;;;17.27;4.50;;;23.20;53.40;;;;;;5397672;26;85958;-73
2024/04/15 08:33:31;;;;;;;14.57;4.18;;;23.30;53.50;;;;;;5400860;25;87100;-72
2024/04/15 08:35:57;;;;;;;13.77;3.17;;;23.30;53.70;;;;;;5390125;26;88792;-76
2024/04/15 08:38:23;;;;;;;12.50;4.15;;;23.20;53.00;;;;;;5369866;26;85769;-71
2024/04/15 08:40:55;;;;;;;15.55;4.18;;;23.00;53.40;;;;;;5367443;26;85925;-71
2024/04/15 08:43:23;;;;;;;10.48;3.75;;;22.90;54.10;;;;;;5396267;26;87047;-72
2024/04/15 08:45:57;;;;;;;11.32;3.55;;;22.90;55.00;;;;;;5401269;26;85821;-75
2024/04/15 08:48:24;;;;;;;15.20;3.75;;;23.00;54.90;;;;;;5368039;26;86309;-73
2024/04/15 08:51:00;;;;;;;13.65;4.15;;;23.00;54.30;;;;;;5398727;26;86100;-74
2024/04/15 08:53:28;;;;;;;16.02;3.25;;;23.00;54.20;;;;;;5340852;26;87864;-76
2024/04/15 08:55:54;;;;;;;12.88;3.50;;;22.90;54.20;;;;;;5401492;26;86536;-70
2024/04/15 08:58:20;;;;;;;10.45;2.80;;;22.80;55.00;;;;;;5400945;26;86731;-75
2024/04/15 09:00:48;;;;;;;13.40;3.72;;;23.00;55.70;;;;;;5399688;26;86046;-76
2024/04/15 09:03:15;;;;;;;10.32;3.17;;;23.10;54.70;;;;;;5368446;26;87993;-70
2024/04/15 09:05:41;;;;;;;11.48;4.00;;;23.10;53.80;;;;;;5365784;26;87781;-76
2024/04/15 09:08:08;;;;;;;9.48;3.63;;;23.00;54.00;;;;;;5399996;26;86013;-75
2024/04/15 09:10:34;;;;;;;11.65;3.13;;;23.00;54.10;;;;;;5401535;26;86071;-71
2024/04/15 09:13:01;;;;;;;9.27;3.33;;;23.00;54.50;;;;;;5367212;26;87290;-77
2024/04/15 09:15:27;;;;;;;11.38;3.55;;;22.90;54.50;;;;;;5370125;26;86643;-76
2024/04/15 09:17:54;;;;;;;12.70;3.17;;;22.80;54.60;;;;;;5399066;26;86142;-74
2024/04/15 09:20:21;;;;;;;10.77;2.92;;;22.80;54.20;;;;;;5368922;26;86385;-77
2024/04/15 09:22:47;;;;;;;9.05;2.88;;;22.80;54.70;;;;;;5395565;26;88130;-71
2024/04/15 09:25:13;;;;;;;9.38;3.70;;;23.00;54.80;;;;;;5365896;26;85664;-74
2024/04/15 09:27:39;;;;;;;11.07;3.40;;;23.10;55.00;;;;;;5367260;26;86173;-72
2024/04/15 09:30:06;;;;;;;10.55;2.17;;;23.20;54.80;;;;;;5399771;25;85705;-72
2024/04/15 09:32:33;;;;;;;10.38;3.45;;;23.10;55.30;;;;;;5399051;26;86575;-72
2024/04/15 09:35:04;;;;;;;11.27;3.17;;;23.20;55.90;;;;;;5339596;26;87345;-72
2024/04/15 09:37:37;;;;;;;11.95;3.88;;;23.20;56.30;;;;;;5367862;26;85706;-73
2024/04/15 09:40:04;;;;;;;10.90;3.10;;;23.20;56.30;;;;;;5399120;26;85521;-70
2024/04/15 09:42:31;;;;;;;11.13;2.90;;;23.20;56.70;;;;;;5339828;26;86135;-68
2024/04/15 09:44:58;;;;;;;8.65;3.20;;;23.40;56.70;;;;;;5400520;26;90883;-65
2024/04/15 09:47:25;;;;;;;9.95;2.97;;;23.40;56.70;;;;;;5398660;26;87122;-69
2024/04/15 09:49:51;;;;;;;14.93;3.53;;;23.30;56.90;;;;;;5395444;26;85492;-71
2024/04/15 09:52:22;;;;;;;11.60;3.08;;;23.30;57.30;;;;;;5398322;26;86566;-77
2024/04/15 09:54:53;;;;;;;9.80;2.90;;;23.30;58.00;;;;;;5396544;26;86190;-75
2024/04/15 09:57:25;;;;;;;7.47;3.42;;;23.30;58.30;;;;;;5396341;26;85691;-69
2024/04/15 09:59:59;;;;;;;8.40;2.55;;;23.20;58.20;;;;;;5364442;26;86168;-74
2024/04/15 10:02:37;;;;;;;10.10;3.20;;;23.40;57.90;;;;;;5365858;26;87286;-71
2024/04/15 10:05:14;;;;;;;9.52;3.33;;;23.50;57.40;;;;;;5400456;26;86484;-76
2024/04/15 10:07:43;;;;;;;7.65;2.70;;;23.50;57.50;;;;;;5368694;26;86029;-74
2024/04/15 10:10:10;;;;;;;6.32;2.63;;;23.40;57.70;;;;;;5393146;26;86272;-77
2024/04/15 10:12:36;;;;;;;10.48;3.05;;;23.30;58.40;;;;;;5368096;26;90108;-76
2024/04/15 10:15:03;;;;;;;9.02;2.60;;;23.30;58.80;;;;;;5368113;26;86949;-76
2024/04/15 10:17:29;;;;;;;10.05;3.05;;;23.30;59.30;;;;;;5397894;26;86416;-78
2024/04/15 10:19:55;;;;;;;9.68;2.65;;;23.30;59.70;;;;;;5340610;26;86920;-71
2024/04/15 10:22:24;;;;;;;7.78;2.67;;;23.40;59.60;;;;;;5366559;26;86421;-70
2024/04/15 10:24:49;;;;;;;11.98;3.40;;;23.40;59.20;;;;;;5352357;26;87861;-74
2024/04/15 10:27:16;;;;;;;7.88;2.92;;;23.60;59.00;;;;;;5371703;26;86230;-74
2024/04/15 10:29:42;;;;;;;7.50;2.67;;;23.40;59.10;;;;;;5402996;26;85694;-72
2024/04/15 10:32:08;;;;;;;12.48;3.47;;;23.40;59.50;;;;;;5402650;26;87601;-75
2024/04/15 10:34:41;;;;;;;6.63;2.42;;;23.40;60.00;;;;;;5402434;26;86481;-74
2024/04/15 10:37:15;;;;;;;8.80;2.95;;;23.40;59.60;;;;;;5366428;26;87476;-71
2024/04/15 10:39:48;;;;;;;9.82;2.40;;;23.50;59.00;;;;;;5399551;26;86358;-72
2024/04/15 10:42:14;;;;;;;8.73;3.20;;;23.60;58.40;;;;;;5354356;26;87196;-72
2024/04/15 10:44:40;;;;;;;8.20;2.75;;;23.60;58.70;;;;;;5364879;26;88213;-76
2024/04/15 10:47:06;;;;;;;9.85;2.33;;;23.50;58.80;;;;;;5365827;26;85369;-74
2024/04/15 10:49:32;;;;;;;5.38;2.60;;;23.50;58.70;;;;;;5364716;26;86768;-76
2024/04/15 10:51:59;;;;;;;6.82;2.05;;;23.50;58.80;;;;;;5364131;26;86061;-75
2024/04/15 10:54:25;;;;;;;6.10;1.70;;;23.60;58.50;;;;;;5334986;26;87083;-71
2024/04/15 10:56:51;;;;;;;10.93;2.80;;;23.60;58.20;;;;;;5344482;26;86219;-70
2024/04/15 10:59:17;;;;;;;9.57;3.20;;;23.50;58.30;;;;;;5333252;26;86550;-72
2024/04/15 11:01:46;;;;;;;8.70;3.80;;;23.50;58.50;;;;;;5363793;26;87518;-75
2024/04/15 11:04:13;;;;;;;;;;;23.50;58.70;;;;;;5401375;26;87864;-73
2024/04/15 11:06:39;;;;;;;10.10;2.50;;;23.40;57.10;;;;;;5402387;26;85946;-78
2024/04/15 11:09:05;;;;;;;7.00;2.28;;;23.60;56.50;;;;;;5401850;26;86227;-72
2024/04/15 11:11:34;;;;;;;8.90;2.25;;;23.50;55.70;;;;;;5400121;26;87399;-72
2024/04/15 11:14:00;;;;;;;9.90;2.88;;;23.50;56.80;;;;;;5366804;26;87100;-76
2024/04/15 11:16:26;;;;;;;6.68;2.65;;;23.30;57.50;;;;;;5379842;26;87579;-74
2024/04/15 11:18:53;;;;;;;7.60;2.53;;;23.20;57.10;;;;;;5352407;26;87233;-77
2024/04/15 11:21:19;;;;;;;6.50;2.17;;;23.20;57.80;;;;;;5362436;26;87799;-72
2024/04/15 11:23:45;;;;;;;5.30;1.92;;;23.30;57.30;;;;;;5355204;26;86941;-70
2024/04/15 11:26:14;;;;;;;6.20;2.42;;;23.40;56.00;;;;;;5354339;26;89009;-72
2024/04/15 11:28:41;;;;;;;10.17;2.30;;;23.40;55.90;;;;;;5323627;26;87212;-70
2024/04/15 11:31:08;;;;;;;3.75;1.95;;;23.40;56.30;;;;;;5342633;26;88505;-74
2024/04/15 11:33:34;;;;;;;7.25;2.08;;;23.30;57.00;;;;;;5368484;26;86719;-72
2024/04/15 11:36:00;;;;;;;5.90;2.05;;;23.20;57.50;;;;;;5341509;26;86550;-73
2024/04/15 11:38:26;;;;;;;7.25;2.20;;;23.40;57.10;;;;;;5373720;26;87995;-73
2024/04/15 11:40:52;;;;;;;6.53;2.30;;;23.50;56.80;;;;;;5348812;26;89489;-69
2024/04/15 11:43:19;;;;;;;7.80;2.33;;;23.40;56.80;;;;;;5371505;26;86477;-73
2024/04/15 11:45:52;;;;;;;4.90;1.73;;;23.40;57.60;;;;;;5366201;25;86872;-71
2024/04/15 11:48:19;;;;;;;5.28;2.03;;;23.20;52.20;;;;;;4396880;26;10000844;-72
2024/04/15 11:50:47;;;;;;;8.90;2.33;;;23.00;53.20;;;;;;5368473;25;87647;-72
2024/04/15 11:53:13;;;;;;;5.45;1.70;;;23.10;54.20;;;;;;5372233;25;85917;-71
2024/04/15 11:55:39;;;;;;;4.18;2.10;;;23.20;53.90;;;;;;5331609;26;86340;-78
2024/04/15 11:58:07;;;;;;;4.65;1.50;;;23.20;52.50;;;;;;5341673;26;87177;-73
2024/04/15 12:00:33;;;;;;;3.85;1.20;;;23.10;52.20;;;;;;5370862;26;86457;-70
2024/04/15 12:02:59;;;;;;;6.75;2.13;;;23.00;52.60;;;;;;5390229;25;86384;-75
2024/04/15 12:05:26;;;;;;;4.75;1.63;;;22.90;53.40;;;;;;5370370;25;86722;-77
2024/04/15 12:07:52;;;;;;;8.93;2.10;;;23.10;53.90;;;;;;5335802;26;87462;-74
2024/04/15 12:10:18;;;;;;;6.88;2.65;;;23.20;53.80;;;;;;5368166;26;86273;-76
2024/04/15 12:12:44;;;;;;;5.28;1.40;;;23.20;52.60;;;;;;5368500;26;85943;-74
2024/04/15 12:15:11;;;;;;;4.72;1.80;;;23.10;52.50;;;;;;5340126;26;87225;-72
2024/04/15 12:17:38;;;;;;;2.70;1.35;;;23.00;52.20;;;;;;5347731;26;88204;-73
2024/04/15 12:20:05;;;;;;;5.53;1.45;;;23.00;52.80;;;;;;5307240;26;85486;-73
2024/04/15 12:22:31;;;;;;;4.35;1.33;;;23.00;53.40;;;;;;5371098;26;86120;-69
2024/04/15 12:24:58;;;;;;;2.20;1.70;;;23.10;53.50;;;;;;5340108;26;87239;-75
2024/04/15 12:27:23;;;;;;;4.70;1.50;;;23.20;53.20;;;;;;5351023;26;87308;-74
2024/04/15 12:29:49;;;;;;;3.63;1.50;;;23.10;52.90;;;;;;5320913;26;85836;-72
2024/04/15 12:32:15;;;;;;;6.10;1.63;;;23.00;52.70;;;;;;5377705;26;85633;-76
2024/04/15 12:34:41;;;;;;;5.57;1.20;;;22.90;53.00;;;;;;5351726;26;87148;-73
2024/04/15 12:37:07;;;;;;;6.53;1.70;;;23.00;54.20;;;;;;5343574;26;86711;-70
2024/04/15 12:39:33;;;;;;;4.10;1.10;;;23.20;54.00;;;;;;5400852;26;86861;-69
2024/04/15 12:41:59;;;;;;;8.63;1.92;;;23.20;53.40;;;;;;5385537;26;85664;-70